Time;durP1;ratioP1;P1;durP2;ratioP2;P2;SDS_P1;SDS_P2;PMS_P1;PMS_P2;Temp;Humidity;BMP_temperature;BMP_pressure;BME280_temperature;BME280_humidity;BME280_pressure;Samples;Min_cycle;Max_cycle;Signal;HPM_P1;HPM_P2
2024/04/12 00:01:13;;;;;;;3.30;2.70;;;14.90;99.90;;;;;;5327662;26;20520;-69
2024/04/12 00:03:42;;;;;;;3.13;2.60;;;14.90;99.90;;;;;;5325871;26;20448;-69
2024/04/12 00:06:15;;;;;;;6.10;2.80;;;14.80;99.90;;;;;;5318231;26;20510;-69
2024/04/12 00:08:46;;;;;;;4.53;3.10;;;15.00;99.90;;;;;;5316093;26;20952;-69
2024/04/12 00:11:16;;;;;;;5.43;2.80;;;15.00;99.90;;;;;;5326529;26;20803;-69
2024/04/12 00:13:46;;;;;;;3.57;2.90;;;15.10;99.90;;;;;;5322086;26;20482;-69
2024/04/12 00:16:12;;;;;;;3.53;3.23;;;15.20;99.90;;;;;;5323667;26;20487;-70
2024/04/12 00:18:45;;;;;;;3.10;2.80;;;15.30;99.90;;;;;;5329964;26;23832;-69
2024/04/12 00:21:11;;;;;;;6.03;2.30;;;15.10;99.90;;;;;;5324689;26;20459;-69
2024/04/12 00:23:41;;;;;;;5.57;2.30;;;15.00;99.90;;;;;;5327023;26;20475;-69
2024/04/12 00:26:07;;;;;;;4.87;2.80;;;15.20;99.90;;;;;;5332070;26;20540;-70
2024/04/12 00:28:39;;;;;;;2.80;2.23;;;15.20;99.90;;;;;;5323922;26;21331;-69
2024/04/12 00:31:06;;;;;;;3.37;2.73;;;15.30;99.90;;;;;;5325320;26;20643;-69
2024/04/12 00:33:36;;;;;;;6.47;3.20;;;15.20;99.90;;;;;;5332001;26;20475;-69
2024/04/12 00:36:07;;;;;;;8.10;2.83;;;15.10;99.90;;;;;;5319795;26;20479;-69
2024/04/12 00:38:38;;;;;;;4.47;3.73;;;15.10;99.90;;;;;;5313911;26;20479;-69
2024/04/12 00:41:11;;;;;;;3.13;2.80;;;15.10;99.90;;;;;;5324853;26;20471;-69
2024/04/12 00:43:48;;;;;;;5.10;2.80;;;15.10;99.90;;;;;;5318508;26;20605;-69
2024/04/12 00:46:15;;;;;;;6.00;2.43;;;15.10;99.90;;;;;;5323893;26;20618;-69
2024/04/12 00:48:45;;;;;;;7.03;3.80;;;15.10;99.90;;;;;;5318559;26;20547;-69
2024/04/12 00:51:15;;;;;;;7.80;3.10;;;15.20;99.90;;;;;;5324709;26;20956;-69
2024/04/12 00:53:45;;;;;;;3.53;2.87;;;15.20;99.90;;;;;;5325182;26;20448;-69
2024/04/12 00:56:13;;;;;;;3.10;2.80;;;15.10;99.90;;;;;;5313886;26;20459;-69
2024/04/12 00:58:47;;;;;;;3.50;2.73;;;15.10;99.90;;;;;;5320291;26;20842;-69
2024/04/12 01:01:17;;;;;;;3.90;2.67;;;15.20;99.90;;;;;;5318499;26;20479;-69
2024/04/12 01:03:53;;;;;;;5.40;2.90;;;15.20;99.90;;;;;;5322169;26;20484;-69
2024/04/12 01:06:23;;;;;;;8.23;2.90;;;15.20;99.90;;;;;;5317809;26;20553;-69
2024/04/12 01:08:52;;;;;;;3.80;2.47;;;15.30;99.90;;;;;;5322572;26;20479;-69
2024/04/12 01:11:19;;;;;;;4.33;2.43;;;15.20;99.90;;;;;;5316890;26;21051;-69
2024/04/12 01:13:52;;;;;;;4.30;3.47;;;15.20;99.90;;;;;;5317127;26;20598;-69
2024/04/12 01:16:18;;;;;;;3.40;3.00;;;15.30;99.90;;;;;;5316919;26;21099;-69
2024/04/12 01:18:47;;;;;;;5.57;2.80;;;15.10;99.90;;;;;;5318064;26;20549;-70
2024/04/12 01:21:13;;;;;;;5.23;2.50;;;15.10;99.90;;;;;;5320031;26;20487;-69
2024/04/12 01:23:43;;;;;;;4.10;3.40;;;15.20;99.90;;;;;;5315798;26;20483;-69
2024/04/12 01:26:13;;;;;;;7.20;3.17;;;15.20;99.90;;;;;;5322819;26;21069;-69
2024/04/12 01:28:43;;;;;;;4.83;3.17;;;15.20;99.90;;;;;;5319413;26;20487;-69
2024/04/12 01:31:14;;;;;;;4.83;2.43;;;15.30;99.90;;;;;;5314482;26;20475;-70
2024/04/12 01:33:48;;;;;;;3.73;2.30;;;15.30;99.90;;;;;;5313429;26;20502;-70
2024/04/12 01:36:17;;;;;;;8.20;3.10;;;15.40;99.90;;;;;;5313719;26;20572;-69
2024/04/12 01:38:53;;;;;;;4.70;3.33;;;15.40;99.90;;;;;;5319130;26;20532;-69
2024/04/12 01:41:22;;;;;;;4.43;3.27;;;15.20;99.90;;;;;;5323548;26;20474;-69
2024/04/12 01:43:52;;;;;;;4.00;2.80;;;15.30;99.90;;;;;;5320151;26;20634;-70
2024/04/12 01:46:26;;;;;;;4.00;3.00;;;15.30;99.90;;;;;;5318190;26;20911;-69
2024/04/12 01:48:54;;;;;;;2.70;2.33;;;15.30;99.90;;;;;;5323212;26;20528;-69
2024/04/12 01:51:23;;;;;;;3.60;2.73;;;15.30;99.90;;;;;;5520118;21;21020;-69
2024/04/12 01:53:54;;;;;;;4.70;3.77;;;15.30;99.90;;;;;;5304552;26;20479;-69
2024/04/12 01:56:23;;;;;;;4.30;2.60;;;15.20;99.90;;;;;;5322491;26;20579;-69
2024/04/12 01:58:54;;;;;;;11.27;3.50;;;15.20;99.90;;;;;;5308853;26;23096;-70
2024/04/12 02:01:22;;;;;;;7.97;3.00;;;15.30;99.90;;;;;;5308396;26;20553;-70
2024/04/12 02:03:50;;;;;;;4.33;2.90;;;15.30;99.90;;;;;;5314350;26;20528;-70
2024/04/12 02:06:16;;;;;;;4.20;3.33;;;15.40;99.90;;;;;;5315388;26;20548;-70
2024/04/12 02:08:44;;;;;;;6.23;2.80;;;15.20;99.90;;;;;;5310704;26;20584;-70
2024/04/12 02:11:11;;;;;;;4.27;2.50;;;15.30;99.90;;;;;;5313538;26;20362;-70
2024/04/12 02:13:42;;;;;;;4.37;2.87;;;15.20;99.90;;;;;;5313696;26;21409;-71
2024/04/12 02:16:10;;;;;;;6.00;3.20;;;15.30;99.90;;;;;;5307377;26;20544;-69
2024/04/12 02:18:41;;;;;;;4.23;2.60;;;15.20;99.90;;;;;;5303988;26;20532;-70
2024/04/12 02:21:07;;;;;;;8.63;5.63;;;15.20;99.90;;;;;;5311486;26;20539;-71
2024/04/12 02:23:37;;;;;;;3.77;2.90;;;15.30;99.90;;;;;;5313593;26;20480;-71
2024/04/12 02:26:04;;;;;;;3.70;3.33;;;15.30;99.90;;;;;;5309200;26;20292;-70
2024/04/12 02:28:36;;;;;;;3.50;2.00;;;15.20;99.90;;;;;;5310834;26;20556;-70
2024/04/12 02:31:08;;;;;;;4.60;2.50;;;15.20;99.90;;;;;;5313599;26;21100;-70
2024/04/12 02:33:38;;;;;;;2.60;2.23;;;15.20;99.90;;;;;;5312416;26;20492;-70
2024/04/12 02:36:11;;;;;;;4.90;2.50;;;15.20;99.90;;;;;;5312089;26;21191;-70
2024/04/12 02:38:40;;;;;;;2.20;1.73;;;15.30;99.90;;;;;;5303925;26;20484;-70
2024/04/12 02:41:07;;;;;;;2.20;1.97;;;15.30;99.90;;;;;;5311332;26;20481;-69
2024/04/12 02:43:35;;;;;;;3.67;2.03;;;15.40;99.90;;;;;;5308140;26;20630;-70
2024/04/12 02:46:04;;;;;;;5.13;2.47;;;15.30;99.90;;;;;;5318589;26;20532;-70
2024/04/12 02:48:33;;;;;;;3.40;2.30;;;15.10;99.90;;;;;;5311139;26;20519;-70
2024/04/12 02:51:03;;;;;;;7.60;2.40;;;15.20;99.90;;;;;;5307205;26;20967;-70
2024/04/12 02:53:36;;;;;;;4.33;2.27;;;15.30;99.90;;;;;;5310492;26;20596;-70
2024/04/12 02:56:03;;;;;;;2.50;2.30;;;15.20;99.90;;;;;;5316648;26;20471;-69
2024/04/12 02:58:37;;;;;;;3.40;2.93;;;15.20;99.90;;;;;;5303300;26;20483;-70
2024/04/12 03:01:07;;;;;;;3.07;2.30;;;15.10;99.90;;;;;;5306259;26;20483;-70
2024/04/12 03:03:39;;;;;;;4.30;2.63;;;15.20;99.90;;;;;;5305427;26;20625;-69
2024/04/12 03:06:09;;;;;;;3.73;1.87;;;15.20;99.90;;;;;;5303858;26;20525;-69
2024/04/12 03:08:38;;;;;;;3.23;2.10;;;15.20;99.90;;;;;;5312504;26;20477;-70
2024/04/12 03:11:14;;;;;;;2.93;1.93;;;15.20;99.90;;;;;;5310904;26;20531;-70
2024/04/12 03:13:44;;;;;;;3.13;2.17;;;15.30;99.90;;;;;;5313506;26;20533;-70
2024/04/12 03:16:13;;;;;;;2.90;2.00;;;15.40;99.90;;;;;;5312883;26;20480;-69
2024/04/12 03:18:46;;;;;;;3.33;2.60;;;15.30;99.90;;;;;;5302054;26;21157;-69
2024/04/12 03:21:14;;;;;;;2.60;2.40;;;15.30;99.90;;;;;;5306204;26;20592;-69
2024/04/12 03:23:45;;;;;;;4.33;2.83;;;15.20;99.90;;;;;;5306654;26;20479;-69
2024/04/12 03:26:11;;;;;;;4.37;2.67;;;15.10;99.90;;;;;;5317203;26;21021;-69
2024/04/12 03:28:40;;;;;;;3.90;2.90;;;15.20;99.90;;;;;;5312318;26;20478;-69
2024/04/12 03:31:07;;;;;;;4.00;2.40;;;15.10;99.90;;;;;;5314781;26;20593;-69
2024/04/12 03:33:42;;;;;;;3.30;2.60;;;15.10;99.90;;;;;;5313250;26;21222;-69
2024/04/12 03:36:26;;;;;;;3.07;2.27;;;15.20;99.90;;;;;;5303579;26;20472;-68
2024/04/12 03:39:24;;;;;;;3.40;2.20;;;15.30;99.90;;;;;;5308419;26;21140;-69
2024/04/12 03:41:43;;;;;;;3.70;2.53;;;15.40;99.90;;;;;;5312392;26;20522;-69
2024/04/12 03:44:13;;;;;;;5.23;3.73;;;15.30;99.90;;;;;;5336970;26;21046;-69
2024/04/12 03:46:40;;;;;;;4.17;3.03;;;15.20;99.90;;;;;;5297079;26;23286;-70
2024/04/12 03:49:13;;;;;;;5.50;3.57;;;15.10;99.90;;;;;;5308131;26;20537;-70
2024/04/12 03:51:44;;;;;;;6.30;3.43;;;15.00;99.90;;;;;;5288821;26;20536;-70
2024/04/12 03:54:17;;;;;;;4.70;3.73;;;15.00;99.90;;;;;;5309601;26;20568;-69
2024/04/12 03:56:44;;;;;;;6.87;4.03;;;14.90;99.90;;;;;;5305728;26;20519;-69
2024/04/12 03:59:12;;;;;;;5.90;5.30;;;14.90;99.90;;;;;;5331463;26;21147;-69
2024/04/12 04:01:44;;;;;;;12.47;5.37;;;14.90;99.90;;;;;;5322433;26;20584;-69
2024/04/12 04:04:17;;;;;;;6.63;3.33;;;14.90;99.90;;;;;;5326770;26;21067;-69
2024/04/12 04:06:44;;;;;;;7.30;5.37;;;14.90;99.90;;;;;;5319893;26;20483;-70
2024/04/12 04:09:13;;;;;;;8.63;5.17;;;14.90;99.90;;;;;;5333907;26;20539;-69
2024/04/12 04:11:42;;;;;;;6.40;3.50;;;14.90;99.90;;;;;;5325243;26;20495;-69
2024/04/12 04:14:13;;;;;;;5.00;4.20;;;14.90;99.90;;;;;;5319833;26;20543;-70
2024/04/12 04:16:39;;;;;;;6.90;4.00;;;14.80;99.90;;;;;;5325794;26;20771;-69
2024/04/12 04:19:12;;;;;;;7.90;4.70;;;14.80;99.90;;;;;;5328020;26;21087;-70
2024/04/12 04:21:41;;;;;;;7.40;4.03;;;14.80;99.90;;;;;;5338345;26;20725;-70
2024/04/12 04:24:13;;;;;;;6.83;5.03;;;14.80;99.90;;;;;;5336981;26;20524;-70
2024/04/12 04:26:40;;;;;;;7.10;3.93;;;14.80;99.90;;;;;;5336591;26;20530;-70
2024/04/12 04:29:10;;;;;;;10.57;4.00;;;14.80;99.90;;;;;;5324658;26;21285;-70
2024/04/12 04:31:46;;;;;;;6.87;4.67;;;14.80;99.90;;;;;;5311092;26;20918;-70
2024/04/12 04:34:15;;;;;;;6.73;3.70;;;14.80;99.90;;;;;;5318907;26;20521;-70
2024/04/12 04:36:44;;;;;;;4.70;3.47;;;14.80;99.90;;;;;;5318027;26;20828;-69
2024/04/12 04:39:15;;;;;;;7.80;3.43;;;14.80;99.90;;;;;;5315300;26;20531;-69
2024/04/12 04:41:43;;;;;;;7.87;4.10;;;14.70;99.90;;;;;;5322716;26;20956;-70
2024/04/12 04:44:14;;;;;;;5.50;4.20;;;14.70;99.90;;;;;;5321341;26;20471;-69
2024/04/12 04:46:41;;;;;;;6.20;3.70;;;14.80;99.90;;;;;;5331486;26;20482;-69
2024/04/12 04:49:09;;;;;;;7.50;3.80;;;14.90;99.90;;;;;;5321194;26;20477;-69
2024/04/12 04:51:36;;;;;;;10.40;4.53;;;14.90;99.90;;;;;;5315193;26;20485;-71
2024/04/12 04:54:11;;;;;;;5.40;2.63;;;14.90;99.90;;;;;;5307837;26;20490;-69
2024/04/12 04:56:38;;;;;;;1.00;0.80;;;14.90;99.90;;;;;;5331896;26;20471;-70
2024/04/12 04:59:07;;;;;;;5.60;4.90;;;14.90;99.90;;;;;;5316104;26;20471;-71
2024/04/12 05:01:34;;;;;;;5.40;3.93;;;14.90;99.90;;;;;;5321176;26;20523;-72
2024/04/12 05:04:02;;;;;;;10.60;3.10;;;14.80;99.90;;;;;;5323392;26;20502;-72
2024/04/12 05:06:29;;;;;;;6.47;4.23;;;14.80;99.90;;;;;;5322078;26;20481;-72
2024/04/12 05:09:00;;;;;;;2.37;2.17;;;14.80;99.90;;;;;;5311595;26;20540;-72
2024/04/12 05:11:30;;;;;;;6.00;4.20;;;14.80;99.90;;;;;;5323600;26;20495;-72
2024/04/12 05:14:05;;;;;;;6.80;4.63;;;14.90;99.90;;;;;;5312377;26;20532;-72
2024/04/12 05:16:32;;;;;;;6.50;3.43;;;14.90;99.90;;;;;;5315697;26;20488;-72
2024/04/12 05:19:08;;;;;;;6.40;3.67;;;14.90;99.90;;;;;;5322353;26;21008;-72
2024/04/12 05:21:35;;;;;;;5.83;4.20;;;14.60;99.90;;;;;;5316316;26;20642;-72
2024/04/12 05:24:09;;;;;;;7.03;4.10;;;14.60;99.90;;;;;;5313555;26;20505;-71
2024/04/12 05:26:41;;;;;;;5.87;4.00;;;14.60;99.90;;;;;;5323067;26;20460;-71
2024/04/12 05:29:11;;;;;;;7.17;4.53;;;14.70;99.90;;;;;;5316035;26;20581;-72
2024/04/12 05:31:38;;;;;;;1.33;1.23;;;14.70;99.90;;;;;;5322912;26;21678;-72
2024/04/12 05:34:07;;;;;;;0.90;0.60;;;14.70;99.90;;;;;;5322159;26;20455;-71
2024/04/12 05:36:33;;;;;;;0.90;0.70;;;14.70;99.90;;;;;;5326404;26;21146;-71
2024/04/12 05:39:08;;;;;;;4.57;2.57;;;14.80;99.90;;;;;;5315446;26;20485;-73
2024/04/12 05:41:37;;;;;;;3.97;2.20;;;14.70;99.90;;;;;;5321865;26;20306;-72
2024/04/12 05:44:06;;;;;;;4.77;3.13;;;14.60;99.90;;;;;;5309606;26;20909;-71
2024/04/12 05:46:33;;;;;;;3.30;2.17;;;14.60;99.90;;;;;;5311903;26;20735;-70
2024/04/12 05:49:09;;;;;;;4.93;2.73;;;14.60;99.90;;;;;;5312616;26;20451;-71
2024/04/12 05:51:35;;;;;;;7.00;3.60;;;14.70;99.90;;;;;;5313241;26;20483;-71
2024/04/12 05:54:10;;;;;;;3.17;1.67;;;14.60;99.90;;;;;;5312185;26;20468;-71
2024/04/12 05:56:39;;;;;;;5.87;2.63;;;14.60;99.90;;;;;;5319955;26;20486;-72
2024/04/12 05:59:13;;;;;;;3.40;2.33;;;14.70;99.90;;;;;;5325667;26;21092;-72
2024/04/12 06:01:43;;;;;;;5.13;2.37;;;14.80;99.90;;;;;;5313548;26;21126;-72
2024/04/12 06:04:13;;;;;;;4.40;2.70;;;14.80;99.90;;;;;;5316685;26;20455;-72
2024/04/12 06:06:42;;;;;;;5.27;3.17;;;14.90;99.90;;;;;;5316215;26;20634;-71
2024/04/12 06:09:19;;;;;;;9.53;2.73;;;14.90;99.90;;;;;;5321226;26;20786;-70
2024/04/12 06:11:50;;;;;;;4.97;2.60;;;14.90;99.90;;;;;;5317895;26;20483;-71
2024/04/12 06:14:20;;;;;;;6.40;2.33;;;15.00;99.90;;;;;;5315672;26;20538;-71
2024/04/12 06:16:46;;;;;;;5.37;3.47;;;15.00;99.90;;;;;;5315645;26;20887;-73
2024/04/12 06:19:15;;;;;;;4.87;3.33;;;14.90;99.90;;;;;;5311828;26;20485;-74
2024/04/12 06:21:45;;;;;;;3.20;2.80;;;14.90;99.90;;;;;;5325001;26;20594;-73
2024/04/12 06:24:15;;;;;;;5.23;2.83;;;15.00;99.90;;;;;;5315105;26;20469;-73
2024/04/12 06:26:42;;;;;;;4.40;3.07;;;15.00;99.90;;;;;;5322563;26;22577;-73
2024/04/12 06:29:16;;;;;;;6.30;3.33;;;14.90;99.90;;;;;;5306776;26;20944;-74
2024/04/12 06:31:49;;;;;;;5.10;3.30;;;14.80;99.90;;;;;;5302280;26;20538;-74
2024/04/12 06:34:17;;;;;;;6.83;2.93;;;14.90;99.90;;;;;;5311033;26;20494;-74
2024/04/12 06:36:47;;;;;;;5.70;3.00;;;14.80;99.90;;;;;;5309979;26;20461;-74
2024/04/12 06:39:14;;;;;;;4.37;2.73;;;14.80;99.90;;;;;;5323946;26;20528;-73
2024/04/12 06:41:45;;;;;;;9.60;3.40;;;14.80;99.90;;;;;;5311229;26;20532;-72
2024/04/12 06:44:19;;;;;;;7.50;3.13;;;14.80;99.90;;;;;;5330317;26;20479;-73
2024/04/12 06:46:51;;;;;;;3.40;2.40;;;14.80;99.90;;;;;;5311878;26;20994;-74
2024/04/12 06:49:19;;;;;;;3.53;2.73;;;14.80;99.90;;;;;;5325033;26;20455;-73
2024/04/12 06:54:35;;;;;;;9.30;4.27;;;14.80;99.90;;;;;;5328259;26;20520;-74
2024/04/12 06:57:04;;;;;;;4.47;2.63;;;14.80;99.90;;;;;;5329899;26;20465;-74
2024/04/12 06:59:40;;;;;;;5.73;3.80;;;14.70;99.90;;;;;;5329055;26;20444;-73
2024/04/12 07:02:07;;;;;;;7.03;4.10;;;14.80;99.90;;;;;;5305686;26;20483;-73
2024/04/12 07:04:38;;;;;;;5.20;3.63;;;14.80;99.90;;;;;;5329442;26;20992;-73
2024/04/12 07:07:04;;;;;;;5.20;3.50;;;14.90;99.90;;;;;;5335334;26;21033;-73
2024/04/12 07:09:33;;;;;;;4.20;3.77;;;15.00;99.90;;;;;;5326106;26;20558;-73
2024/04/12 07:12:05;;;;;;;6.30;4.13;;;15.00;99.90;;;;;;5329443;26;20588;-73
2024/04/12 07:14:37;;;;;;;5.03;3.87;;;15.10;99.90;;;;;;5320661;26;20771;-73
2024/04/12 07:17:19;;;;;;;9.57;4.93;;;15.10;99.90;;;;;;5322026;26;20584;-73
2024/04/12 07:19:49;;;;;;;5.20;3.77;;;15.20;99.90;;;;;;5307927;26;20569;-73
2024/04/12 07:22:18;;;;;;;3.73;2.77;;;15.30;99.90;;;;;;5311425;26;20477;-73
2024/04/12 07:24:50;;;;;;;5.00;3.60;;;15.30;99.90;;;;;;5331719;26;20541;-72
2024/04/12 07:27:16;;;;;;;4.13;3.20;;;15.20;99.90;;;;;;5322288;26;20475;-73
2024/04/12 07:29:48;;;;;;;4.63;2.77;;;15.20;99.90;;;;;;5321381;26;20533;-73
2024/04/12 07:32:15;;;;;;;6.40;3.73;;;15.20;99.90;;;;;;5308688;26;20487;-74
2024/04/12 07:34:48;;;;;;;7.73;3.23;;;15.20;99.90;;;;;;5319599;26;20515;-74
2024/04/12 07:37:20;;;;;;;5.40;3.47;;;15.30;99.90;;;;;;5317877;26;20487;-75
2024/04/12 07:39:56;;;;;;;7.83;3.67;;;15.50;99.90;;;;;;5318953;26;20481;-73
2024/04/12 07:42:22;;;;;;;7.37;3.47;;;15.60;99.90;;;;;;5320769;26;21134;-73
2024/04/12 07:44:53;;;;;;;3.40;2.70;;;15.70;99.90;;;;;;5320251;26;20462;-73
2024/04/12 07:47:20;;;;;;;4.13;3.07;;;15.90;99.90;;;;;;5320137;26;21040;-73
2024/04/12 07:49:48;;;;;;;5.90;3.23;;;15.90;99.90;;;;;;5320645;26;20506;-73
2024/04/12 07:52:14;;;;;;;2.40;2.13;;;16.00;99.90;;;;;;5327539;26;20483;-73
2024/04/12 07:54:43;;;;;;;5.60;3.07;;;16.00;99.90;;;;;;5324097;26;20499;-74
2024/04/12 07:57:13;;;;;;;5.23;2.67;;;16.20;99.90;;;;;;5319878;26;20249;-73
2024/04/12 07:59:42;;;;;;;3.03;2.00;;;16.20;99.90;;;;;;5324257;26;20463;-73
2024/04/12 08:02:17;;;;;;;4.43;2.50;;;16.20;99.90;;;;;;5311918;26;20635;-73
2024/04/12 08:04:45;;;;;;;4.97;3.63;;;16.00;99.90;;;;;;5305728;26;20484;-73
2024/04/12 08:07:13;;;;;;;5.30;2.60;;;16.10;99.90;;;;;;5322454;26;20543;-74
2024/04/12 08:09:44;;;;;;;3.50;2.40;;;16.20;99.90;;;;;;5319690;26;21028;-73
2024/04/12 08:12:14;;;;;;;5.80;3.57;;;16.40;99.90;;;;;;5315028;26;20531;-73
2024/04/12 08:14:51;;;;;;;5.90;2.93;;;16.70;99.90;;;;;;5317010;26;20521;-73
2024/04/12 08:17:23;;;;;;;7.40;3.73;;;16.80;99.90;;;;;;5307699;26;20527;-74
2024/04/12 08:19:55;;;;;;;4.77;3.30;;;17.00;99.90;;;;;;5312554;26;20472;-74
2024/04/12 08:22:21;;;;;;;3.60;2.43;;;16.90;99.90;;;;;;5306644;26;20475;-73
2024/04/12 08:24:52;;;;;;;6.63;4.27;;;16.80;99.90;;;;;;5324344;26;20838;-73
2024/04/12 08:27:19;;;;;;;4.83;3.70;;;16.70;99.90;;;;;;5315575;26;20275;-72
2024/04/12 08:29:48;;;;;;;5.07;3.50;;;16.70;99.90;;;;;;5321522;26;20456;-74
2024/04/12 08:32:19;;;;;;;7.27;3.60;;;16.80;99.90;;;;;;5307179;26;20487;-73
2024/04/12 08:34:55;;;;;;;4.90;3.80;;;16.80;99.90;;;;;;5310597;26;20625;-73
2024/04/12 08:37:30;;;;;;;2.07;1.50;;;16.90;99.90;;;;;;5308618;26;20495;-73
2024/04/12 08:40:08;;;;;;;3.63;2.90;;;17.00;99.90;;;;;;5332487;26;20508;-73
2024/04/12 08:42:34;;;;;;;4.80;2.80;;;17.00;99.90;;;;;;5314365;26;20593;-73
2024/04/12 08:45:12;;;;;;;3.53;2.43;;;17.10;99.90;;;;;;5308819;26;20497;-73
2024/04/12 08:47:51;;;;;;;4.93;2.73;;;17.30;99.90;;;;;;5318843;26;21079;-74
2024/04/12 08:50:24;;;;;;;8.97;2.60;;;17.20;99.90;;;;;;5307794;26;20852;-73
2024/04/12 08:52:53;;;;;;;4.30;2.37;;;17.20;99.90;;;;;;5312011;26;20509;-73
2024/04/12 08:55:23;;;;;;;3.87;2.63;;;17.20;99.90;;;;;;5312649;26;20620;-73
2024/04/12 08:57:56;;;;;;;3.53;2.50;;;17.50;99.90;;;;;;5316027;26;20537;-73
2024/04/12 09:00:28;;;;;;;4.17;3.67;;;17.80;99.90;;;;;;5319955;26;21111;-73
2024/04/12 09:02:58;;;;;;;6.00;2.70;;;18.20;99.90;;;;;;5325591;26;20542;-73
2024/04/12 09:05:30;;;;;;;1.00;0.83;;;18.40;99.90;;;;;;5319082;26;20480;-74
2024/04/12 09:07:58;;;;;;;3.27;2.60;;;18.50;99.90;;;;;;5330222;26;20477;-74
2024/04/12 09:10:27;;;;;;;2.10;1.70;;;18.50;99.90;;;;;;5318734;26;20491;-74
2024/04/12 09:12:54;;;;;;;2.87;2.40;;;18.30;99.90;;;;;;5325563;26;20629;-74
2024/04/12 09:15:32;;;;;;;3.93;2.17;;;18.20;99.90;;;;;;5317002;26;20487;-73
2024/04/12 09:18:00;;;;;;;5.07;2.80;;;18.00;99.90;;;;;;5301349;26;20484;-74
2024/04/12 09:20:35;;;;;;;3.63;3.27;;;17.80;99.90;;;;;;5307600;26;20483;-73
2024/04/12 09:23:13;;;;;;;3.47;1.90;;;17.80;99.90;;;;;;5316188;26;21097;-74
2024/04/12 09:25:44;;;;;;;7.20;3.20;;;17.70;99.90;;;;;;5307929;26;20543;-73
2024/04/12 09:28:13;;;;;;;3.57;2.53;;;17.80;99.90;;;;;;5310737;26;20581;-73
2024/04/12 09:33:31;;;;;;;6.00;2.80;;;17.70;99.90;;;;;;5314597;26;20577;-73
2024/04/12 09:36:13;;;;;;;7.30;2.83;;;17.80;99.90;;;;;;5312230;26;20481;-73
2024/04/12 09:38:39;;;;;;;3.77;2.77;;;17.90;99.90;;;;;;5310791;26;20789;-73
2024/04/12 09:41:28;;;;;;;4.67;2.73;;;17.90;99.90;;;;;;5319307;26;20473;-73
2024/04/12 09:43:59;;;;;;;8.07;3.80;;;18.00;99.90;;;;;;5315257;26;20527;-73
2024/04/12 09:46:46;;;;;;;5.07;3.40;;;18.10;99.90;;;;;;5313037;26;20520;-73
2024/04/12 10:39:33;;;;;;;6.03;4.40;;;18.40;99.90;;;;;;5331064;26;20531;-74
2024/04/12 10:42:05;;;;;;;6.57;4.20;;;18.40;99.90;;;;;;5317352;26;20478;-74
2024/04/12 10:44:32;;;;;;;5.83;3.47;;;18.40;99.90;;;;;;5319748;26;20483;-74
2024/04/12 10:47:01;;;;;;;4.93;2.90;;;18.40;99.90;;;;;;5321051;26;20469;-74
2024/04/12 10:49:27;;;;;;;4.00;3.40;;;18.40;99.90;;;;;;5320905;26;20499;-73
2024/04/12 10:51:56;;;;;;;8.23;3.73;;;18.40;99.90;;;;;;5342299;26;20970;-74
2024/04/12 10:54:23;;;;;;;4.37;3.40;;;18.70;99.90;;;;;;5337348;26;20646;-73
2024/04/12 10:56:53;;;;;;;4.00;3.00;;;19.10;99.90;;;;;;5330502;26;20487;-73
2024/04/12 10:59:26;;;;;;;6.63;3.03;;;19.40;99.90;;;;;;5324932;26;20535;-73
2024/04/12 11:01:55;;;;;;;5.27;4.07;;;19.60;99.90;;;;;;5329135;26;20585;-75
2024/04/12 11:04:22;;;;;;;11.10;4.70;;;19.60;99.90;;;;;;5329270;26;20575;-73
2024/04/12 11:06:52;;;;;;;5.07;3.43;;;19.70;99.90;;;;;;5334689;26;20901;-74
2024/04/12 11:09:30;;;;;;;4.40;3.33;;;19.60;99.90;;;;;;5332083;26;20618;-73
2024/04/12 11:12:00;;;;;;;8.90;3.93;;;19.70;99.90;;;;;;5331649;26;20483;-75
2024/04/12 11:14:33;;;;;;;4.60;4.20;;;19.60;99.90;;;;;;5320549;26;21347;-74
2024/04/12 11:33:39;;;;;;;5.80;2.90;;;20.40;99.90;;;;;;5318992;26;20526;-74
2024/04/12 11:36:10;;;;;;;6.73;3.43;;;20.70;99.90;;;;;;5318495;26;20536;-74
2024/04/12 11:38:44;;;;;;;4.07;3.13;;;20.80;99.90;;;;;;5329509;26;20486;-74
2024/04/12 11:41:15;;;;;;;2.33;2.10;;;21.20;99.90;;;;;;5334030;26;20471;-73
2024/04/12 11:43:45;;;;;;;4.97;3.50;;;21.10;99.90;;;;;;5326983;26;20481;-74
2024/04/12 11:46:14;;;;;;;5.60;2.93;;;20.90;99.90;;;;;;5340469;26;20597;-74
2024/04/12 11:48:43;;;;;;;3.00;2.40;;;21.00;99.90;;;;;;5331503;26;20954;-73
2024/04/12 11:51:09;;;;;;;4.43;2.60;;;21.30;99.90;;;;;;5334844;26;20604;-74
2024/04/12 11:53:38;;;;;;;6.90;3.13;;;21.40;99.90;;;;;;5330150;26;20487;-73
2024/04/12 11:56:04;;;;;;;8.47;2.97;;;21.20;99.90;;;;;;5318088;26;20562;-74
2024/04/12 11:58:33;;;;;;;4.67;2.63;;;21.30;99.90;;;;;;5313059;26;20531;-74
2024/04/12 12:01:01;;;;;;;5.30;3.20;;;21.70;99.90;;;;;;5312209;26;20485;-74
2024/04/12 12:03:32;;;;;;;7.73;3.50;;;22.40;99.90;;;;;;5308325;26;20480;-74
2024/04/12 12:06:06;;;;;;;3.63;2.37;;;22.40;99.90;;;;;;5313805;26;20482;-74
2024/04/12 12:08:41;;;;;;;2.43;2.07;;;22.30;99.90;;;;;;5313465;26;20961;-74
2024/04/12 12:11:08;;;;;;;4.90;2.83;;;22.50;99.90;;;;;;5322093;26;20575;-74
2024/04/12 12:13:37;;;;;;;3.53;2.73;;;22.70;99.90;;;;;;5315968;26;20563;-74
2024/04/12 12:16:06;;;;;;;5.50;2.93;;;22.70;99.90;;;;;;5322000;26;20632;-74
2024/04/12 12:18:37;;;;;;;3.23;2.20;;;22.60;99.90;;;;;;5318182;26;20479;-74
2024/04/12 12:21:03;;;;;;;4.20;2.60;;;22.50;99.90;;;;;;5321564;26;20535;-73
2024/04/12 12:23:33;;;;;;;3.43;2.50;;;22.30;99.90;;;;;;5318278;26;20475;-73
2024/04/12 12:25:59;;;;;;;3.07;2.63;;;22.30;99.90;;;;;;5316712;26;20473;-74
2024/04/12 12:28:27;;;;;;;2.83;2.50;;;21.80;99.90;;;;;;5317235;26;20535;-74
2024/04/12 12:30:54;;;;;;;2.30;2.10;;;21.40;99.90;;;;;;5318725;26;20894;-74
2024/04/12 12:33:23;;;;;;;7.10;2.50;;;21.00;99.90;;;;;;5311562;26;20596;-73
2024/04/12 12:35:54;;;;;;;3.13;2.83;;;20.90;99.90;;;;;;5316024;26;20529;-73
2024/04/12 12:38:23;;;;;;;2.73;2.50;;;20.60;99.90;;;;;;5316621;26;22433;-74
2024/04/12 12:40:49;;;;;;;4.73;2.83;;;20.40;99.90;;;;;;5321650;26;20818;-74
2024/04/12 12:43:19;;;;;;;4.90;3.60;;;20.40;99.90;;;;;;5319953;26;20544;-73
2024/04/12 12:45:45;;;;;;;6.00;3.20;;;20.30;99.90;;;;;;5317285;26;20469;-74
2024/04/12 12:48:22;;;;;;;5.90;3.60;;;20.20;99.90;;;;;;5329811;26;20604;-74
2024/04/12 12:50:50;;;;;;;5.10;2.90;;;20.20;99.90;;;;;;5320310;26;20507;-73
2024/04/12 12:53:23;;;;;;;14.63;3.13;;;20.20;99.90;;;;;;5313601;26;20542;-73
2024/04/12 12:55:51;;;;;;;3.43;2.63;;;20.40;99.90;;;;;;5314007;26;21074;-74
2024/04/12 12:58:22;;;;;;;4.53;3.23;;;20.60;99.90;;;;;;5323585;26;22010;-73
2024/04/12 13:00:48;;;;;;;3.93;2.30;;;20.80;99.90;;;;;;5316549;26;20476;-73
2024/04/12 13:03:17;;;;;;;3.47;2.70;;;21.00;99.90;;;;;;5326407;26;20888;-73
2024/04/12 13:05:45;;;;;;;3.20;2.30;;;21.10;99.90;;;;;;5321402;26;20483;-74
2024/04/12 13:08:15;;;;;;;42.77;4.03;;;21.10;99.90;;;;;;5329988;26;21024;-74
2024/04/12 13:10:46;;;;;;;4.13;3.00;;;20.80;99.90;;;;;;5324474;26;20479;-74
2024/04/12 13:13:18;;;;;;;3.77;3.47;;;20.90;99.90;;;;;;5319047;26;20476;-73
2024/04/12 13:15:44;;;;;;;3.43;2.93;;;20.80;99.90;;;;;;5311240;26;20535;-73
2024/04/12 13:18:12;;;;;;;2.43;2.20;;;20.80;99.90;;;;;;5331304;26;21043;-73
2024/04/12 13:20:38;;;;;;;8.03;3.40;;;20.80;99.90;;;;;;5317428;26;20522;-73
2024/04/12 13:23:09;;;;;;;4.13;2.93;;;20.70;99.90;;;;;;5316305;26;20488;-70
2024/04/12 13:25:37;;;;;;;3.83;3.00;;;21.30;99.90;;;;;;5332154;26;20280;-71
2024/04/12 13:28:11;;;;;;;3.27;2.97;;;21.60;99.90;;;;;;5330023;26;20491;-70
2024/04/12 13:30:40;;;;;;;3.93;3.57;;;21.40;99.90;;;;;;5312214;26;20482;-71
2024/04/12 13:33:09;;;;;;;2.70;2.07;;;21.40;99.90;;;;;;5324925;26;20487;-71
2024/04/12 13:35:40;;;;;;;4.47;3.10;;;21.30;99.90;;;;;;5317118;26;20475;-71
2024/04/12 13:38:12;;;;;;;6.00;2.83;;;21.20;99.90;;;;;;5319277;26;20837;-70
2024/04/12 13:40:40;;;;;;;4.37;3.00;;;21.00;99.90;;;;;;5321027;26;20483;-70
2024/04/12 13:43:14;;;;;;;6.03;3.10;;;20.80;99.90;;;;;;5319625;26;20485;-70
2024/04/12 13:51:17;;;;;;;6.53;2.63;;;20.40;99.90;;;;;;5321775;26;20966;-73
2024/04/12 13:53:50;;;;;;;3.30;2.10;;;20.30;99.90;;;;;;5318572;26;20961;-73
2024/04/12 13:56:25;;;;;;;3.60;2.03;;;20.30;99.90;;;;;;5320101;26;20484;-74
2024/04/12 13:58:58;;;;;;;3.80;2.50;;;20.50;99.90;;;;;;5312545;26;21311;-73
2024/04/12 14:01:25;;;;;;;5.33;2.43;;;20.60;99.90;;;;;;5316862;26;20574;-74
2024/04/12 14:03:58;;;;;;;3.30;2.80;;;21.00;99.90;;;;;;5318399;26;20490;-74
2024/04/12 14:06:24;;;;;;;3.03;2.10;;;21.30;99.90;;;;;;5315788;26;20604;-74
2024/04/12 14:08:54;;;;;;;4.00;2.50;;;21.30;99.90;;;;;;5323590;26;20529;-73
2024/04/12 14:11:20;;;;;;;5.27;2.50;;;21.40;99.90;;;;;;5317871;26;20528;-73
2024/04/12 14:13:49;;;;;;;2.70;2.20;;;21.30;99.90;;;;;;5328442;26;20471;-73
2024/04/12 14:16:17;;;;;;;2.40;2.20;;;21.20;99.90;;;;;;5315482;26;20603;-74
2024/04/12 14:18:48;;;;;;;5.70;2.47;;;21.40;99.90;;;;;;5314963;26;20471;-73